sensor_id;sensor_type;location;lat;lon;timestamp;pressure;altitude;pressure_sealevel;temperature;humidity
17855;BME280;9053;53.358;6.382;2022-09-03T00:02:11;101387.44;;;18.06;68.36
17855;BME280;9053;53.358;6.382;2022-09-03T00:04:49;101390.88;;;17.99;68.44
17855;BME280;9053;53.358;6.382;2022-09-03T00:07:29;101390.88;;;17.94;68.66
17855;BME280;9053;53.358;6.382;2022-09-03T00:10:03;101390.84;;;17.93;68.80
17855;BME280;9053;53.358;6.382;2022-09-03T00:12:41;101386.34;;;17.87;68.93
17855;BME280;9053;53.358;6.382;2022-09-03T00:15:13;101391.63;;;17.84;69.04
17855;BME280;9053;53.358;6.382;2022-09-03T00:17:46;101386.25;;;17.80;69.21
17855;BME280;9053;53.358;6.382;2022-09-03T00:20:20;101387.03;;;17.76;69.22
17855;BME280;9053;53.358;6.382;2022-09-03T00:22:53;101391.44;;;17.72;69.29
17855;BME280;9053;53.358;6.382;2022-09-03T00:25:28;101388.69;;;17.67;69.44
17855;BME280;9053;53.358;6.382;2022-09-03T00:28:06;101378.03;;;17.64;69.58
17855;BME280;9053;53.358;6.382;2022-09-03T00:30:41;101385.09;;;17.62;69.73
17855;BME280;9053;53.358;6.382;2022-09-03T00:33:19;101386.78;;;17.57;69.80
17855;BME280;9053;53.358;6.382;2022-09-03T00:35:55;101378.72;;;17.51;69.95
17855;BME280;9053;53.358;6.382;2022-09-03T00:38:28;101376.91;;;17.47;69.94
17855;BME280;9053;53.358;6.382;2022-09-03T00:41:07;101377.72;;;17.43;70.14
17855;BME280;9053;53.358;6.382;2022-09-03T00:43:50;101382.06;;;17.38;70.32
17855;BME280;9053;53.358;6.382;2022-09-03T00:46:25;101382.94;;;17.35;70.25
17855;BME280;9053;53.358;6.382;2022-09-03T00:49:17;101388.22;;;17.34;70.29
17855;BME280;9053;53.358;6.382;2022-09-03T00:51:55;101383.69;;;17.28;70.72
17855;BME280;9053;53.358;6.382;2022-09-03T00:54:33;101373.03;;;17.25;70.66
17855;BME280;9053;53.358;6.382;2022-09-03T00:57:17;101380.13;;;17.24;70.73
17855;BME280;9053;53.358;6.382;2022-09-03T01:00:00;101382.75;;;17.23;70.81
17855;BME280;9053;53.358;6.382;2022-09-03T01:02:41;101374.75;;;17.21;70.84
17855;BME280;9053;53.358;6.382;2022-09-03T01:05:23;101378.22;;;17.17;70.92
17855;BME280;9053;53.358;6.382;2022-09-03T01:08:07;101386.16;;;17.14;70.90
17855;BME280;9053;53.358;6.382;2022-09-03T01:10:47;101381.69;;;17.12;71.12
17855;BME280;9053;53.358;6.382;2022-09-03T01:13:26;101378.06;;;17.08;71.20
17855;BME280;9053;53.358;6.382;2022-09-03T01:16:10;101382.50;;;17.06;71.21
17855;BME280;9053;53.358;6.382;2022-09-03T01:18:52;101389.56;;;17.04;71.19
17855;BME280;9053;53.358;6.382;2022-09-03T01:21:39;101377.97;;;16.99;71.33
17855;BME280;9053;53.358;6.382;2022-09-03T01:24:36;101380.50;;;16.93;71.42
17855;BME280;9053;53.358;6.382;2022-09-03T01:27:20;101395.47;;;16.86;71.42
17855;BME280;9053;53.358;6.382;2022-09-03T01:30:02;101392.72;;;16.81;71.63
17855;BME280;9053;53.358;6.382;2022-09-03T01:32:39;101392.69;;;16.80;71.66
17855;BME280;9053;53.358;6.382;2022-09-03T01:35:18;101389.06;;;16.76;71.83
17855;BME280;9053;53.358;6.382;2022-09-03T01:38:05;101383.75;;;16.76;71.78
17855;BME280;9053;53.358;6.382;2022-09-03T01:40:46;101387.25;;;16.75;71.94
17855;BME280;9053;53.358;6.382;2022-09-03T01:43:34;101381.03;;;16.73;71.75
17855;BME280;9053;53.358;6.382;2022-09-03T01:46:18;101380.13;;;16.71;71.87
17855;BME280;9053;53.358;6.382;2022-09-03T01:48:54;101379.16;;;16.66;71.89
17855;BME280;9053;53.358;6.382;2022-09-03T01:51:29;101376.41;;;16.63;72.01
17855;BME280;9053;53.358;6.382;2022-09-03T01:54:16;101379.94;;;16.62;72.10
17855;BME280;9053;53.358;6.382;2022-09-03T01:57:13;101379.94;;;16.62;72.13
17855;BME280;9053;53.358;6.382;2022-09-03T02:00:05;101383.41;;;16.58;72.34
17855;BME280;9053;53.358;6.382;2022-09-03T02:02:39;101383.41;;;16.58;72.39
17855;BME280;9053;53.358;6.382;2022-09-03T02:05:11;101386.97;;;16.60;72.37
17855;BME280;9053;53.358;6.382;2022-09-03T02:07:44;101389.63;;;16.60;72.29
17855;BME280;9053;53.358;6.382;2022-09-03T02:10:17;101383.53;;;16.64;72.29
17855;BME280;9053;53.358;6.382;2022-09-03T02:12:50;101392.38;;;16.64;72.39
17855;BME280;9053;53.358;6.382;2022-09-03T02:15:23;101379.06;;;16.63;72.39
17855;BME280;9053;53.358;6.382;2022-09-03T02:18:00;101384.41;;;16.64;72.52
17855;BME280;9053;53.358;6.382;2022-09-03T02:20:32;101380.00;;;16.65;72.45
17855;BME280;9053;53.358;6.382;2022-09-03T02:23:02;101382.63;;;16.63;72.49
17855;BME280;9053;53.358;6.382;2022-09-03T02:25:35;101382.63;;;16.63;72.51
17855;BME280;9053;53.358;6.382;2022-09-03T02:28:07;101378.19;;;16.62;72.62
17855;BME280;9053;53.358;6.382;2022-09-03T02:30:43;101383.47;;;16.61;72.57
17855;BME280;9053;53.358;6.382;2022-09-03T02:33:16;101373.63;;;16.55;72.76
17855;BME280;9053;53.358;6.382;2022-09-03T02:35:46;101379.84;;;16.56;72.60
17855;BME280;9053;53.358;6.382;2022-09-03T02:38:18;101369.22;;;16.56;72.80
17855;BME280;9053;53.358;6.382;2022-09-03T02:40:48;101371.00;;;16.57;72.90
17855;BME280;9053;53.358;6.382;2022-09-03T02:43:23;101368.31;;;16.55;72.76
17855;BME280;9053;53.358;6.382;2022-09-03T02:46:00;101370.06;;;16.53;72.85
17855;BME280;9053;53.358;6.382;2022-09-03T02:48:34;101376.22;;;16.52;73.03
17855;BME280;9053;53.358;6.382;2022-09-03T02:51:04;101375.31;;;16.50;72.92
17855;BME280;9053;53.358;6.382;2022-09-03T02:53:40;101380.66;;;16.52;73.16
17855;BME280;9053;53.358;6.382;2022-09-03T02:56:10;101378.00;;;16.52;73.21
17855;BME280;9053;53.358;6.382;2022-09-03T02:58:40;101378.84;;;16.49;73.15
17855;BME280;9053;53.358;6.382;2022-09-03T03:01:10;101374.38;;;16.47;73.35
17855;BME280;9053;53.358;6.382;2022-09-03T03:03:52;101383.13;;;16.42;73.33
17855;BME280;9053;53.358;6.382;2022-09-03T03:06:22;101375.94;;;16.37;73.24
17855;BME280;9053;53.358;6.382;2022-09-03T03:08:52;101378.56;;;16.34;73.36
17855;BME280;9053;53.358;6.382;2022-09-03T03:11:22;101382.06;;;16.33;73.58
17855;BME280;9053;53.358;6.382;2022-09-03T03:13:53;101374.97;;;16.32;73.54
17855;BME280;9053;53.358;6.382;2022-09-03T03:16:22;101382.88;;;16.29;73.73
17855;BME280;9053;53.358;6.382;2022-09-03T03:18:55;101378.38;;;16.25;73.82
17855;BME280;9053;53.358;6.382;2022-09-03T03:21:26;101375.72;;;16.23;73.72
17855;BME280;9053;53.358;6.382;2022-09-03T03:23:56;101373.00;;;16.21;73.91
17855;BME280;9053;53.358;6.382;2022-09-03T03:26:26;101379.16;;;16.19;74.00
17855;BME280;9053;53.358;6.382;2022-09-03T03:28:58;101377.38;;;16.18;74.01
17855;BME280;9053;53.358;6.382;2022-09-03T03:31:31;101380.00;;;16.16;74.03
17855;BME280;9053;53.358;6.382;2022-09-03T03:34:04;101380.03;;;16.18;74.24
17855;BME280;9053;53.358;6.382;2022-09-03T03:36:34;101385.34;;;16.18;74.25
17855;BME280;9053;53.358;6.382;2022-09-03T03:39:04;101383.56;;;16.18;74.29
17855;BME280;9053;53.358;6.382;2022-09-03T03:41:37;101381.75;;;16.17;74.27
17855;BME280;9053;53.358;6.382;2022-09-03T03:44:07;101385.34;;;16.18;74.34
17855;BME280;9053;53.358;6.382;2022-09-03T03:46:38;101388.88;;;16.18;74.46
17855;BME280;9053;53.358;6.382;2022-09-03T03:49:11;101375.56;;;16.15;74.43
17855;BME280;9053;53.358;6.382;2022-09-03T03:51:40;101380.81;;;16.14;74.29
17855;BME280;9053;53.358;6.382;2022-09-03T03:54:10;101380.78;;;16.12;74.35
17855;BME280;9053;53.358;6.382;2022-09-03T03:56:43;101380.78;;;16.12;74.52
17855;BME280;9053;53.358;6.382;2022-09-03T03:59:21;101380.78;;;16.11;74.50
17855;BME280;9053;53.358;6.382;2022-09-03T04:01:53;101380.78;;;16.11;74.50
17855;BME280;9053;53.358;6.382;2022-09-03T04:04:26;101380.72;;;16.08;74.66
17855;BME280;9053;53.358;6.382;2022-09-03T04:06:55;101377.16;;;16.07;74.65
17855;BME280;9053;53.358;6.382;2022-09-03T04:09:25;101381.56;;;16.05;74.70
17855;BME280;9053;53.358;6.382;2022-09-03T04:11:55;101383.28;;;16.03;74.65
17855;BME280;9053;53.358;6.382;2022-09-03T04:14:26;101373.56;;;16.04;74.71
17855;BME280;9053;53.358;6.382;2022-09-03T04:16:56;101378.91;;;16.05;74.88
17855;BME280;9053;53.358;6.382;2022-09-03T04:19:28;101379.78;;;16.06;74.92
17855;BME280;9053;53.358;6.382;2022-09-03T04:21:58;101377.97;;;16.05;74.87
17855;BME280;9053;53.358;6.382;2022-09-03T04:24:28;101389.53;;;16.07;74.97
17855;BME280;9053;53.358;6.382;2022-09-03T04:26:58;101382.44;;;16.07;74.92
17855;BME280;9053;53.358;6.382;2022-09-03T04:29:28;101381.56;;;16.07;74.95
17855;BME280;9053;53.358;6.382;2022-09-03T04:31:58;101378.91;;;16.07;75.07
17855;BME280;9053;53.358;6.382;2022-09-03T04:34:51;101378.97;;;16.08;75.15
17855;BME280;9053;53.358;6.382;2022-09-03T04:37:21;101366.56;;;16.09;75.07
17855;BME280;9053;53.358;6.382;2022-09-03T04:39:51;101368.34;;;16.08;75.08
17855;BME280;9053;53.358;6.382;2022-09-03T04:42:21;101367.41;;;16.06;75.07
17855;BME280;9053;53.358;6.382;2022-09-03T04:44:51;101367.41;;;16.06;75.17
17855;BME280;9053;53.358;6.382;2022-09-03T04:47:20;101357.69;;;16.07;75.24
17855;BME280;9053;53.358;6.382;2022-09-03T04:49:53;101363.00;;;16.07;75.22
17855;BME280;9053;53.358;6.382;2022-09-03T04:52:23;101358.53;;;16.04;75.29
17855;BME280;9053;53.358;6.382;2022-09-03T04:54:55;101362.00;;;16.01;75.40
17855;BME280;9053;53.358;6.382;2022-09-03T04:57:25;101362.00;;;16.01;75.32
17855;BME280;9053;53.358;6.382;2022-09-03T05:00:00;101369.97;;;16.01;75.47
17855;BME280;9053;53.358;6.382;2022-09-03T05:02:29;101351.34;;;16.00;75.43
17855;BME280;9053;53.358;6.382;2022-09-03T05:05:02;101359.31;;;15.98;75.58
17855;BME280;9053;53.358;6.382;2022-09-03T05:07:32;101353.09;;;15.98;75.61
17855;BME280;9053;53.358;6.382;2022-09-03T05:10:06;101354.88;;;15.99;75.80
17855;BME280;9053;53.358;6.382;2022-09-03T05:12:39;101360.22;;;16.00;75.78
17855;BME280;9053;53.358;6.382;2022-09-03T05:15:09;101356.69;;;16.01;75.64
17855;BME280;9053;53.358;6.382;2022-09-03T05:17:38;101357.63;;;16.04;75.77
17855;BME280;9053;53.358;6.382;2022-09-03T05:20:11;101368.28;;;16.05;75.79
17855;BME280;9053;53.358;6.382;2022-09-03T05:22:41;101365.66;;;16.07;75.96
17855;BME280;9053;53.358;6.382;2022-09-03T05:25:11;101364.81;;;16.08;75.97
17855;BME280;9053;53.358;6.382;2022-09-03T05:27:40;101368.31;;;16.07;76.01
17855;BME280;9053;53.358;6.382;2022-09-03T05:30:11;101370.03;;;16.05;75.90
17855;BME280;9053;53.358;6.382;2022-09-03T05:32:41;101370.03;;;16.05;76.07
17855;BME280;9053;53.358;6.382;2022-09-03T05:35:13;101370.91;;;16.04;76.13
17855;BME280;9053;53.358;6.382;2022-09-03T05:37:46;101365.59;;;16.04;76.01
17855;BME280;9053;53.358;6.382;2022-09-03T05:40:16;101356.75;;;16.05;76.06
17855;BME280;9053;53.358;6.382;2022-09-03T05:42:46;101358.56;;;16.06;76.32
17855;BME280;9053;53.358;6.382;2022-09-03T05:45:16;101349.72;;;16.07;76.16
17855;BME280;9053;53.358;6.382;2022-09-03T05:47:46;101357.75;;;16.10;76.32
17855;BME280;9053;53.358;6.382;2022-09-03T05:50:19;101352.44;;;16.10;76.28
17855;BME280;9053;53.358;6.382;2022-09-03T05:52:49;101350.72;;;16.12;76.16
17855;BME280;9053;53.358;6.382;2022-09-03T05:55:18;101339.25;;;16.13;76.21
17855;BME280;9053;53.358;6.382;2022-09-03T05:57:50;101343.69;;;16.14;76.31
17855;BME280;9053;53.358;6.382;2022-09-03T06:00:20;101339.31;;;16.16;76.20
17855;BME280;9053;53.358;6.382;2022-09-03T06:02:50;101347.34;;;16.20;76.38
17855;BME280;9053;53.358;6.382;2022-09-03T06:05:23;101345.63;;;16.24;76.41
17855;BME280;9053;53.358;6.382;2022-09-03T06:07:53;101354.56;;;16.29;76.39
17855;BME280;9053;53.358;6.382;2022-09-03T06:10:23;101354.63;;;16.31;76.36
17855;BME280;9053;53.358;6.382;2022-09-03T06:13:04;101351.97;;;16.32;76.21
17855;BME280;9053;53.358;6.382;2022-09-03T06:15:34;101359.19;;;16.38;76.44
17855;BME280;9053;53.358;6.382;2022-09-03T06:18:04;101352.16;;;16.41;76.21
17855;BME280;9053;53.358;6.382;2022-09-03T06:20:36;101357.50;;;16.44;76.21
17855;BME280;9053;53.358;6.382;2022-09-03T06:23:06;101362.03;;;16.50;76.03
17855;BME280;9053;53.358;6.382;2022-09-03T06:25:36;101358.53;;;16.53;76.11
17855;BME280;9053;53.358;6.382;2022-09-03T06:28:07;101357.69;;;16.55;76.07
17855;BME280;9053;53.358;6.382;2022-09-03T06:30:37;101366.59;;;16.57;75.98
17855;BME280;9053;53.358;6.382;2022-09-03T06:33:07;101356.00;;;16.60;75.97
17855;BME280;9053;53.358;6.382;2022-09-03T06:35:40;101352.59;;;16.66;76.01
17855;BME280;9053;53.358;6.382;2022-09-03T06:38:10;101352.69;;;16.72;76.06
17855;BME280;9053;53.358;6.382;2022-09-03T06:40:41;101354.56;;;16.78;76.06
17855;BME280;9053;53.358;6.382;2022-09-03T06:43:15;101354.66;;;16.82;76.00
17855;BME280;9053;53.358;6.382;2022-09-03T06:45:52;101352.09;;;16.89;75.72
17855;BME280;9053;53.358;6.382;2022-09-03T06:48:22;101350.34;;;16.91;75.61
17855;BME280;9053;53.358;6.382;2022-09-03T06:50:56;101353.13;;;16.98;75.69
17855;BME280;9053;53.358;6.382;2022-09-03T06:53:28;101354.13;;;17.05;75.58
17855;BME280;9053;53.358;6.382;2022-09-03T06:56:00;101356.97;;;17.17;75.57
17855;BME280;9053;53.358;6.382;2022-09-03T06:58:31;101345.75;;;17.37;75.47
17855;BME280;9053;53.358;6.382;2022-09-03T07:01:04;101354.00;;;17.57;75.45
17855;BME280;9053;53.358;6.382;2022-09-03T07:03:36;101356.03;;;17.78;75.30
17855;BME280;9053;53.358;6.382;2022-09-03T07:06:10;101350.03;;;17.94;75.09
17855;BME280;9053;53.358;6.382;2022-09-03T07:08:41;101351.13;;;18.10;74.83
17855;BME280;9053;53.358;6.382;2022-09-03T07:11:13;101361.09;;;18.31;74.66
17855;BME280;9053;53.358;6.382;2022-09-03T07:13:46;101355.06;;;18.50;74.40
17855;BME280;9053;53.358;6.382;2022-09-03T07:16:19;101362.34;;;18.68;73.95
17855;BME280;9053;53.358;6.382;2022-09-03T07:18:49;101372.25;;;18.80;73.59
17855;BME280;9053;53.358;6.382;2022-09-03T07:21:23;101369.66;;;18.89;73.24
17855;BME280;9053;53.358;6.382;2022-09-03T07:23:54;101372.41;;;19.01;72.83
17855;BME280;9053;53.358;6.382;2022-09-03T07:26:27;101365.44;;;19.19;72.69
17855;BME280;9053;53.358;6.382;2022-09-03T07:28:58;101367.31;;;19.35;72.33
17855;BME280;9053;53.358;6.382;2022-09-03T07:31:31;101372.75;;;19.54;72.23
17855;BME280;9053;53.358;6.382;2022-09-03T07:34:02;101364.88;;;19.71;71.97
17855;BME280;9053;53.358;6.382;2022-09-03T07:36:39;101358.69;;;19.85;71.60
17855;BME280;9053;53.358;6.382;2022-09-03T07:39:10;101362.31;;;19.98;71.07
17855;BME280;9053;53.358;6.382;2022-09-03T07:41:41;101361.41;;;20.05;70.89
17855;BME280;9053;53.358;6.382;2022-09-03T07:44:12;101356.09;;;20.07;70.23
17855;BME280;9053;53.358;6.382;2022-09-03T07:46:45;101361.44;;;20.12;69.92
17855;BME280;9053;53.358;6.382;2022-09-03T07:49:18;101358.81;;;20.27;69.75
17855;BME280;9053;53.358;6.382;2022-09-03T07:51:51;101364.16;;;20.38;69.59
17855;BME280;9053;53.358;6.382;2022-09-03T07:54:21;101357.94;;;20.48;69.23
17855;BME280;9053;53.358;6.382;2022-09-03T07:56:53;101363.34;;;20.65;69.14
17855;BME280;9053;53.358;6.382;2022-09-03T07:59:23;101358.91;;;20.85;68.74
17855;BME280;9053;53.358;6.382;2022-09-03T08:01:52;101361.56;;;21.05;68.61
17855;BME280;9053;53.358;6.382;2022-09-03T08:04:23;101352.63;;;21.17;68.40
17855;BME280;9053;53.358;6.382;2022-09-03T08:06:56;101359.75;;;21.23;67.76
17855;BME280;9053;53.358;6.382;2022-09-03T08:09:26;101352.59;;;21.28;67.39
17855;BME280;9053;53.358;6.382;2022-09-03T08:11:55;101345.44;;;21.37;67.19
17855;BME280;9053;53.358;6.382;2022-09-03T08:14:25;101347.25;;;21.42;67.03
17855;BME280;9053;53.358;6.382;2022-09-03T08:16:56;101348.13;;;21.36;66.41
17855;BME280;9053;53.358;6.382;2022-09-03T08:19:26;101351.72;;;21.27;66.13
17855;BME280;9053;53.358;6.382;2022-09-03T08:21:58;101347.25;;;21.28;66.07
17855;BME280;9053;53.358;6.382;2022-09-03T08:24:28;101348.13;;;21.39;65.95
17855;BME280;9053;53.358;6.382;2022-09-03T08:26:59;101344.56;;;21.48;66.03
17855;BME280;9053;53.358;6.382;2022-09-03T08:29:29;101343.63;;;21.58;65.76
17855;BME280;9053;53.358;6.382;2022-09-03T08:31:59;101349.84;;;21.68;65.77
17855;BME280;9053;53.358;6.382;2022-09-03T08:34:31;101348.03;;;21.77;65.50
17855;BME280;9053;53.358;6.382;2022-09-03T08:37:03;101339.94;;;21.88;65.59
17855;BME280;9053;53.358;6.382;2022-09-03T08:39:35;101348.78;;;22.01;65.36
17855;BME280;9053;53.358;6.382;2022-09-03T08:42:35;101344.31;;;22.08;65.20
17855;BME280;9053;53.358;6.382;2022-09-03T08:45:14;101349.59;;;22.14;65.15
17855;BME280;9053;53.358;6.382;2022-09-03T08:47:47;101345.13;;;22.19;64.73
17855;BME280;9053;53.358;6.382;2022-09-03T08:50:24;101347.81;;;22.22;64.55
17855;BME280;9053;53.358;6.382;2022-09-03T08:52:59;101347.78;;;22.25;64.55
17855;BME280;9053;53.358;6.382;2022-09-03T08:55:33;101349.56;;;22.31;64.36
17855;BME280;9053;53.358;6.382;2022-09-03T08:58:11;101356.66;;;22.38;64.38
17855;BME280;9053;53.358;6.382;2022-09-03T09:00:47;101349.47;;;22.41;64.35
17855;BME280;9053;53.358;6.382;2022-09-03T09:03:32;101354.78;;;22.47;63.99
17855;BME280;9053;53.358;6.382;2022-09-03T09:06:10;101360.19;;;22.43;63.99
17855;BME280;9053;53.358;6.382;2022-09-03T09:08:51;101350.28;;;22.51;64.02
17855;BME280;9053;53.358;6.382;2022-09-03T09:11:34;101345.75;;;22.58;63.93
17855;BME280;9053;53.358;6.382;2022-09-03T09:14:16;101345.69;;;22.67;63.62
17855;BME280;9053;53.358;6.382;2022-09-03T09:16:57;101351.94;;;22.71;63.41
17855;BME280;9053;53.358;6.382;2022-09-03T09:19:40;101354.53;;;22.81;63.36
17855;BME280;9053;53.358;6.382;2022-09-03T09:22:23;101352.66;;;22.91;63.32
17855;BME280;9053;53.358;6.382;2022-09-03T09:25:01;101350.81;;;22.95;63.08
17855;BME280;9053;53.358;6.382;2022-09-03T09:27:34;101349.97;;;22.91;63.16
17855;BME280;9053;53.358;6.382;2022-09-03T09:30:05;101346.31;;;23.01;63.01
17855;BME280;9053;53.358;6.382;2022-09-03T09:32:36;101338.22;;;23.09;62.97
17855;BME280;9053;53.358;6.382;2022-09-03T09:35:07;101339.97;;;23.10;62.72
17855;BME280;9053;53.358;6.382;2022-09-03T09:37:46;101349.72;;;23.19;62.64
17855;BME280;9053;53.358;6.382;2022-09-03T09:40:29;101347.19;;;23.05;62.34
17855;BME280;9053;53.358;6.382;2022-09-03T09:43:11;101338.25;;;23.03;62.11
17855;BME280;9053;53.358;6.382;2022-09-03T09:45:43;101332.88;;;23.04;62.08
17855;BME280;9053;53.358;6.382;2022-09-03T09:48:21;101335.53;;;23.09;61.95
17855;BME280;9053;53.358;6.382;2022-09-03T09:51:03;101346.97;;;23.26;61.95
17855;BME280;9053;53.358;6.382;2022-09-03T09:53:33;101337.94;;;23.33;61.88
17855;BME280;9053;53.358;6.382;2022-09-03T09:56:07;101341.56;;;23.29;61.48
17855;BME280;9053;53.358;6.382;2022-09-03T09:58:36;101338.00;;;23.29;61.51
17855;BME280;9053;53.358;6.382;2022-09-03T10:01:11;101340.63;;;23.32;61.57
17855;BME280;9053;53.358;6.382;2022-09-03T10:03:48;101333.44;;;23.37;61.59
17855;BME280;9053;53.358;6.382;2022-09-03T10:06:22;101330.66;;;23.45;61.45
17855;BME280;9053;53.358;6.382;2022-09-03T10:09:06;101333.19;;;23.55;61.55
17855;BME280;9053;53.358;6.382;2022-09-03T10:11:42;101331.34;;;23.61;61.34
17855;BME280;9053;53.358;6.382;2022-09-03T10:14:19;101335.78;;;23.63;61.32
17855;BME280;9053;53.358;6.382;2022-09-03T10:16:58;101341.16;;;23.65;61.16
17855;BME280;9053;53.358;6.382;2022-09-03T10:19:38;101326.75;;;23.70;61.22
17855;BME280;9053;53.358;6.382;2022-09-03T10:22:13;101331.22;;;23.74;61.14
17855;BME280;9053;53.358;6.382;2022-09-03T10:24:51;101328.53;;;23.74;61.00
17855;BME280;9053;53.358;6.382;2022-09-03T10:27:28;101331.22;;;23.74;60.90
17855;BME280;9053;53.358;6.382;2022-09-03T10:29:58;101329.41;;;23.77;60.58
17855;BME280;9053;53.358;6.382;2022-09-03T10:32:36;101321.38;;;23.75;60.36
17855;BME280;9053;53.358;6.382;2022-09-03T10:35:20;101336.66;;;23.67;60.38
17855;BME280;9053;53.358;6.382;2022-09-03T10:37:59;101326.84;;;23.64;60.19
17855;BME280;9053;53.358;6.382;2022-09-03T10:40:37;101332.22;;;23.64;60.29
17855;BME280;9053;53.358;6.382;2022-09-03T10:43:25;101318.75;;;23.67;60.09
17855;BME280;9053;53.358;6.382;2022-09-03T10:46:01;101324.03;;;23.75;60.17
17855;BME280;9053;53.358;6.382;2022-09-03T10:48:44;101324.78;;;23.88;60.37
17855;BME280;9053;53.358;6.382;2022-09-03T10:51:19;101319.34;;;23.94;60.20
17855;BME280;9053;53.358;6.382;2022-09-03T10:54:20;101317.41;;;24.02;59.83
17855;BME280;9053;53.358;6.382;2022-09-03T10:56:58;101326.25;;;24.09;59.58
17855;BME280;9053;53.358;6.382;2022-09-03T10:59:45;101323.44;;;24.19;59.92
17855;BME280;9053;53.358;6.382;2022-09-03T11:02:32;101313.31;;;24.37;59.65
17855;BME280;9053;53.358;6.382;2022-09-03T11:05:12;101318.50;;;24.49;59.49
17855;BME280;9053;53.358;6.382;2022-09-03T11:07:47;101322.00;;;24.54;59.12
17855;BME280;9053;53.358;6.382;2022-09-03T11:10:21;101320.19;;;24.56;58.96
17855;BME280;9053;53.358;6.382;2022-09-03T11:13:02;101323.69;;;24.61;58.64
17855;BME280;9053;53.358;6.382;2022-09-03T11:15:41;101312.91;;;24.65;58.27
17855;BME280;9053;53.358;6.382;2022-09-03T11:18:15;101317.28;;;24.69;58.26
17855;BME280;9053;53.358;6.382;2022-09-03T11:20:50;101311.97;;;24.67;57.86
17855;BME280;9053;53.358;6.382;2022-09-03T11:23:23;101311.97;;;24.66;57.41
17855;BME280;9053;53.358;6.382;2022-09-03T11:25:59;101312.84;;;24.68;57.45
17855;BME280;9053;53.358;6.382;2022-09-03T11:28:37;101308.22;;;24.74;57.33
17855;BME280;9053;53.358;6.382;2022-09-03T11:31:21;101299.13;;;24.81;57.12
17855;BME280;9053;53.358;6.382;2022-09-03T11:33:55;101308.84;;;24.90;57.13
17855;BME280;9053;53.358;6.382;2022-09-03T11:36:29;101302.53;;;24.91;56.83
17855;BME280;9053;53.358;6.382;2022-09-03T11:39:00;101301.69;;;24.89;56.30
17855;BME280;9053;53.358;6.382;2022-09-03T11:41:33;101300.72;;;24.95;56.06
17855;BME280;9053;53.358;6.382;2022-09-03T11:44:15;101308.63;;;25.02;56.04
17855;BME280;9053;53.358;6.382;2022-09-03T11:46:55;101298.69;;;25.04;55.83
17855;BME280;9053;53.358;6.382;2022-09-03T11:49:28;101291.44;;;25.10;55.75
17855;BME280;9053;53.358;6.382;2022-09-03T11:52:00;101292.22;;;25.18;55.55
17855;BME280;9053;53.358;6.382;2022-09-03T11:54:31;101295.63;;;25.26;55.45
17855;BME280;9053;53.358;6.382;2022-09-03T11:57:11;101290.09;;;25.35;55.30
17855;BME280;9053;53.358;6.382;2022-09-03T11:59:42;101290.91;;;25.37;55.09
17855;BME280;9053;53.358;6.382;2022-09-03T12:02:23;101291.84;;;25.36;54.78
17855;BME280;9053;53.358;6.382;2022-09-03T12:05:13;101280.19;;;25.36;54.44
17855;BME280;9053;53.358;6.382;2022-09-03T12:07:56;101282.09;;;25.31;54.27
17855;BME280;9053;53.358;6.382;2022-09-03T12:10:42;101280.22;;;25.34;54.28
17855;BME280;9053;53.358;6.382;2022-09-03T12:13:35;101282.81;;;25.39;53.93
17855;BME280;9053;53.358;6.382;2022-09-03T12:19:27;101272.75;;;25.47;53.55
17855;BME280;9053;53.358;6.382;2022-09-03T12:22:00;101263.81;;;25.46;53.19
17855;BME280;9053;53.358;6.382;2022-09-03T12:24:31;101269.09;;;25.51;53.23
17855;BME280;9053;53.358;6.382;2022-09-03T12:27:04;101269.03;;;25.53;52.94
17855;BME280;9053;53.358;6.382;2022-09-03T12:29:35;101266.44;;;25.50;52.69
17855;BME280;9053;53.358;6.382;2022-09-03T12:32:08;101269.97;;;25.52;52.57
17855;BME280;9053;53.358;6.382;2022-09-03T12:34:42;101266.44;;;25.50;52.49
17855;BME280;9053;53.358;6.382;2022-09-03T12:37:21;101267.53;;;25.41;52.10
17855;BME280;9053;53.358;6.382;2022-09-03T12:40:16;101261.34;;;25.36;52.18
17855;BME280;9053;53.358;6.382;2022-09-03T12:42:47;101266.63;;;25.40;52.17
17855;BME280;9053;53.358;6.382;2022-09-03T12:45:19;101255.81;;;25.43;51.97
17855;BME280;9053;53.358;6.382;2022-09-03T12:47:50;101264.75;;;25.45;51.91
17855;BME280;9053;53.358;6.382;2022-09-03T12:50:23;101253.03;;;25.46;51.94
17855;BME280;9053;53.358;6.382;2022-09-03T12:52:56;101261.13;;;25.46;51.78
17855;BME280;9053;53.358;6.382;2022-09-03T12:55:32;101261.81;;;25.55;51.79
17855;BME280;9053;53.358;6.382;2022-09-03T12:58:08;101253.66;;;25.59;51.72
17855;BME280;9053;53.358;6.382;2022-09-03T13:00:44;101258.94;;;25.64;51.51
17855;BME280;9053;53.358;6.382;2022-09-03T13:03:18;101257.97;;;25.68;51.50
17855;BME280;9053;53.358;6.382;2022-09-03T13:05:55;101255.19;;;25.71;51.57
17855;BME280;9053;53.358;6.382;2022-09-03T13:08:29;101258.78;;;25.70;51.15
17855;BME280;9053;53.358;6.382;2022-09-03T13:11:02;101256.19;;;25.67;51.32
17855;BME280;9053;53.358;6.382;2022-09-03T13:13:35;101260.78;;;25.62;50.96
17855;BME280;9053;53.358;6.382;2022-09-03T13:16:23;101259.97;;;25.58;50.70
17855;BME280;9053;53.358;6.382;2022-09-03T13:19:04;101253.75;;;25.55;50.52
17855;BME280;9053;53.358;6.382;2022-09-03T13:21:45;101270.91;;;25.51;50.26
17855;BME280;9053;53.358;6.382;2022-09-03T13:24:39;101261.19;;;25.43;50.11
17855;BME280;9053;53.358;6.382;2022-09-03T13:27:20;101253.28;;;25.36;50.07
17855;BME280;9053;53.358;6.382;2022-09-03T13:30:02;101249.66;;;25.37;50.17
17855;BME280;9053;53.358;6.382;2022-09-03T13:32:42;101254.06;;;25.41;50.14
17855;BME280;9053;53.358;6.382;2022-09-03T13:35:25;101247.78;;;25.40;50.25
17855;BME280;9053;53.358;6.382;2022-09-03T13:38:06;101248.69;;;25.39;50.25
17855;BME280;9053;53.358;6.382;2022-09-03T13:40:42;101260.31;;;25.41;50.08
17855;BME280;9053;53.358;6.382;2022-09-03T13:43:25;101255.91;;;25.37;50.04
17855;BME280;9053;53.358;6.382;2022-09-03T13:45:57;101263.09;;;25.38;50.13